Time,TemperatureF,DewpointF,PressureIn,WindDirection,WindDirectionDegrees,WindSpeedMPH,WindSpeedGustMPH,Humidity,HourlyPrecipIn,Conditions,Clouds,dailyrainin,SoftwareType,DateUTC
2013-02-18 00:11:00,35.5,18.0,29.68,NNW,335,4.0,-999.0,50,-99.99,,,0.00,weatherlink.com 1.10,2013-02-18 07:11:00,
2013-02-18 00:26:00,38.2,18.0,29.63,NNW,328,12.0,-999.0,44,-99.99,,,0.00,weatherlink.com 1.10,2013-02-18 07:26:00,
2013-02-18 00:40:00,37.6,19.0,29.62,NNW,338,10.0,-999.0,47,-99.99,,,0.00,weatherlink.com 1.10,2013-02-18 07:40:00,
2013-02-18 00:56:00,35.8,19.0,29.63,North,359,2.0,-999.0,51,-99.99,,,0.00,weatherlink.com 1.10,2013-02-18 07:56:00,
2013-02-18 01:10:00,34.6,19.0,29.65,NNW,342,4.0,-999.0,53,-99.99,,,0.00,weatherlink.com 1.10,2013-02-18 08:10:00,
2013-02-18 01:26:00,34.1,19.0,29.65,NNW,328,3.0,-999.0,55,-99.99,,,0.00,weatherlink.com 1.10,2013-02-18 08:26:00,
2013-02-18 01:40:00,33.8,18.0,29.67,NW,326,0.0,-999.0,52,-99.99,,,0.00,weatherlink.com 1.10,2013-02-18 08:40:00,
2013-02-18 01:55:00,35.5,14.0,29.66,WNW,283,13.0,-999.0,41,-99.99,,,0.00,weatherlink.com 1.10,2013-02-18 08:55:00,
2013-02-18 02:11:00,35.0,10.0,29.68,WNW,297,10.0,-999.0,36,-99.99,,,0.00,weatherlink.com 1.10,2013-02-18 09:11:00,
2013-02-18 02:26:00,34.4,10.0,29.67,WNW,292,12.0,-999.0,37,-99.99,,,0.00,weatherlink.com 1.10,2013-02-18 09:26:00,
2013-02-18 02:41:00,33.7,10.0,29.69,NW,319,2.0,-999.0,38,-99.99,,,0.00,weatherlink.com 1.10,2013-02-18 09:41:00,
2013-02-18 02:56:00,32.8,8.0,29.69,NW,304,6.0,-999.0,35,-99.99,,,0.00,weatherlink.com 1.10,2013-02-18 09:56:00,
2013-02-18 03:11:00,32.2,7.0,29.70,NW,314,4.0,-999.0,35,-99.99,,,0.00,weatherlink.com 1.10,2013-02-18 10:11:00,
2013-02-18 03:26:00,31.8,8.0,29.72,WNW,293,7.0,-999.0,36,-99.99,,,0.00,weatherlink.com 1.10,2013-02-18 10:26:00,
2013-02-18 03:41:00,31.3,7.0,29.73,WNW,287,6.0,-999.0,36,-99.99,,,0.00,weatherlink.com 1.10,2013-02-18 10:41:00,
2013-02-18 03:56:00,30.7,5.0,29.73,WNW,288,7.0,-999.0,33,-99.99,,,0.00,weatherlink.com 1.10,2013-02-18 10:56:00,
2013-02-18 04:11:00,30.4,3.0,29.74,WNW,284,12.0,-999.0,31,-99.99,,,0.00,weatherlink.com 1.10,2013-02-18 11:11:00,
2013-02-18 04:26:00,30.0,3.0,29.77,West,264,10.0,-999.0,31,-99.99,,,0.00,weatherlink.com 1.10,2013-02-18 11:26:00,
2013-02-18 04:41:00,29.7,2.0,29.78,West,280,6.0,-999.0,30,-99.99,,,0.00,weatherlink.com 1.10,2013-02-18 11:41:00,
2013-02-18 04:56:00,29.1,2.0,29.79,West,273,4.0,-999.0,31,-99.99,,,0.00,weatherlink.com 1.10,2013-02-18 11:56:00,
2013-02-18 05:11:00,28.8,2.0,29.80,WSW,256,11.0,-999.0,31,-99.99,,,0.00,weatherlink.com 1.10,2013-02-18 12:11:00,
2013-02-18 05:26:00,28.5,3.0,29.84,WSW,250,11.0,-999.0,33,-99.99,,,0.00,weatherlink.com 1.10,2013-02-18 12:26:00,
2013-02-18 05:41:00,28.2,2.0,29.86,WSW,255,13.0,-999.0,33,-99.99,,,0.00,weatherlink.com 1.10,2013-02-18 12:41:00,
2013-02-18 05:56:00,27.9,3.0,29.87,WSW,255,10.0,-999.0,34,-99.99,,,0.00,weatherlink.com 1.10,2013-02-18 12:56:00,
2013-02-18 06:11:00,27.8,3.0,29.87,WSW,255,9.0,-999.0,34,-99.99,,,0.00,weatherlink.com 1.10,2013-02-18 13:11:00,
2013-02-18 06:26:00,27.3,3.0,29.92,WSW,254,8.0,-999.0,35,-99.99,,,0.00,weatherlink.com 1.10,2013-02-18 13:26:00,
2013-02-18 06:41:00,26.7,4.0,29.94,WSW,255,9.0,-999.0,38,-99.99,,,0.00,weatherlink.com 1.10,2013-02-18 13:41:00,
2013-02-18 06:57:00,26.4,4.0,29.95,West,262,12.0,-999.0,39,-99.99,,,0.00,weatherlink.com 1.10,2013-02-18 13:57:00,
2013-02-18 07:12:00,26.1,5.0,29.95,West,268,7.0,-999.0,40,-99.99,,,0.00,weatherlink.com 1.10,2013-02-18 14:12:00,
2013-02-18 07:28:00,27.2,3.0,29.99,West,274,10.0,-999.0,35,-99.99,,,0.00,weatherlink.com 1.10,2013-02-18 14:28:00,
2013-02-18 07:41:00,27.9,5.0,29.98,West,273,12.0,-999.0,38,-99.99,,,0.00,weatherlink.com 1.10,2013-02-18 14:41:00,
2013-02-18 07:57:00,29.0,6.0,29.99,WSW,255,12.0,-999.0,38,-99.99,,,0.00,weatherlink.com 1.10,2013-02-18 14:57:00,
2013-02-18 08:12:00,29.4,6.0,29.99,WSW,257,12.0,-999.0,37,-99.99,,,0.00,weatherlink.com 1.10,2013-02-18 15:12:00,
2013-02-18 08:28:00,30.0,7.0,30.03,WSW,257,10.0,-999.0,38,-99.99,,,0.00,weatherlink.com 1.10,2013-02-18 15:28:00,
2013-02-18 08:43:00,30.7,7.0,30.03,WSW,252,16.0,-999.0,37,-99.99,,,0.00,weatherlink.com 1.10,2013-02-18 15:43:00,
2013-02-18 08:59:00,31.6,7.0,30.02,West,274,18.0,-999.0,35,-99.99,,,0.00,weatherlink.com 1.10,2013-02-18 15:59:00,
2013-02-18 09:13:00,32.2,5.0,30.02,WSW,255,18.0,-999.0,31,-99.99,,,0.00,weatherlink.com 1.10,2013-02-18 16:13:00,
2013-02-18 09:29:00,33.4,4.0,30.04,West,271,20.0,-999.0,29,-99.99,,,0.00,weatherlink.com 1.10,2013-02-18 16:29:00,
2013-02-18 09:44:00,34.7,4.0,30.03,West,272,9.0,-999.0,27,-99.99,,,0.00,weatherlink.com 1.10,2013-02-18 16:44:00,
2013-02-18 09:58:00,35.5,4.0,30.03,West,269,15.0,-999.0,26,-99.99,,,0.00,weatherlink.com 1.10,2013-02-18 16:58:00,
2013-02-18 10:13:00,36.2,5.0,30.04,WSW,244,11.0,-999.0,27,-99.99,,,0.00,weatherlink.com 1.10,2013-02-18 17:13:00,
2013-02-18 10:29:00,36.3,5.0,30.03,WSW,244,10.0,-999.0,27,-99.99,,,0.00,weatherlink.com 1.10,2013-02-18 17:29:00,
2013-02-18 10:43:00,36.6,6.0,30.04,West,262,7.0,-999.0,28,-99.99,,,0.00,weatherlink.com 1.10,2013-02-18 17:43:00,
2013-02-18 10:59:00,36.8,6.0,30.03,SW,233,13.0,-999.0,27,-99.99,,,0.00,weatherlink.com 1.10,2013-02-18 17:59:00,
2013-02-18 11:15:00,36.8,6.0,30.02,West,262,6.0,-999.0,28,-99.99,,,0.00,weatherlink.com 1.10,2013-02-18 18:15:00,
2013-02-18 11:29:00,38.0,5.0,30.02,WSW,248,12.0,-999.0,25,-99.99,,,0.00,weatherlink.com 1.10,2013-02-18 18:29:00,
2013-02-18 11:44:00,38.3,6.0,30.02,SW,226,12.0,-999.0,26,-99.99,,,0.00,weatherlink.com 1.10,2013-02-18 18:44:00,
2013-02-18 11:59:00,38.6,5.0,30.00,WSW,248,13.0,-999.0,25,-99.99,,,0.00,weatherlink.com 1.10,2013-02-18 18:59:00,
2013-02-18 12:15:00,38.8,5.0,30.00,WSW,251,9.0,-999.0,24,-99.99,,,0.00,weatherlink.com 1.10,2013-02-18 19:15:00,
2013-02-18 12:30:00,39.9,6.0,29.98,West,262,13.0,-999.0,24,-99.99,,,0.00,weatherlink.com 1.10,2013-02-18 19:30:00,
2013-02-18 12:45:00,39.9,6.0,29.97,West,265,10.0,-999.0,24,-99.99,,,0.00,weatherlink.com 1.10,2013-02-18 19:45:00,
2013-02-18 12:59:00,40.5,3.0,29.96,WSW,247,19.0,-999.0,21,-99.99,,,0.00,weatherlink.com 1.10,2013-02-18 19:59:00,
2013-02-18 13:15:00,40.9,4.0,29.96,WSW,257,15.0,-999.0,21,-99.99,,,0.00,weatherlink.com 1.10,2013-02-18 20:15:00,
2013-02-18 13:30:00,41.5,4.0,29.95,West,273,12.0,-999.0,21,-99.99,,,0.00,weatherlink.com 1.10,2013-02-18 20:30:00,
2013-02-18 13:45:00,42.2,0.0,29.94,WSW,252,9.0,-999.0,17,-99.99,,,0.00,weatherlink.com 1.10,2013-02-18 20:45:00,
2013-02-18 14:15:00,42.5,2.0,29.92,West,266,5.0,-999.0,18,-99.99,,,0.00,weatherlink.com 1.10,2013-02-18 21:15:00,
2013-02-18 14:31:00,43.1,3.0,29.93,West,261,12.0,-999.0,19,-99.99,,,0.00,weatherlink.com 1.10,2013-02-18 21:31:00,
2013-02-18 14:46:00,42.8,4.0,29.94,West,278,9.0,-999.0,20,-99.99,,,0.00,weatherlink.com 1.10,2013-02-18 21:46:00,
2013-02-18 15:02:00,42.9,4.0,29.94,WSW,255,11.0,-999.0,20,-99.99,,,0.00,weatherlink.com 1.10,2013-02-18 22:02:00,
2013-02-18 15:17:00,43.1,4.0,29.95,SW,221,11.0,-999.0,20,-99.99,,,0.00,weatherlink.com 1.10,2013-02-18 22:17:00,
2013-02-18 15:31:00,43.1,4.0,29.95,SW,233,10.0,-999.0,20,-99.99,,,0.00,weatherlink.com 1.10,2013-02-18 22:31:00,
2013-02-18 15:46:00,43.6,5.0,29.95,WSW,256,15.0,-999.0,20,-99.99,,,0.00,weatherlink.com 1.10,2013-02-18 22:46:00,
2013-02-18 16:01:00,43.1,4.0,29.95,SW,234,8.0,-999.0,20,-99.99,,,0.00,weatherlink.com 1.10,2013-02-18 23:01:00,
2013-02-18 16:17:00,42.8,4.0,29.96,WSW,251,10.0,-999.0,20,-99.99,,,0.00,weatherlink.com 1.10,2013-02-18 23:17:00,
2013-02-18 16:32:00,42.3,4.0,29.98,West,259,16.0,-999.0,20,-99.99,,,0.00,weatherlink.com 1.10,2013-02-18 23:32:00,
2013-02-18 16:47:00,41.6,3.0,29.98,WSW,249,5.0,-999.0,20,-99.99,,,0.00,weatherlink.com 1.10,2013-02-18 23:47:00,
2013-02-18 17:02:00,41.3,3.0,29.98,WSW,256,12.0,-999.0,20,-99.99,,,0.00,weatherlink.com 1.10,2013-02-19 00:02:00,
2013-02-18 17:17:00,41.2,4.0,29.98,West,266,7.0,-999.0,21,-99.99,,,0.00,weatherlink.com 1.10,2013-02-19 00:17:00,
2013-02-18 17:32:00,40.6,3.0,30.00,West,266,2.0,-999.0,21,-99.99,,,0.00,weatherlink.com 1.10,2013-02-19 00:32:00,
2013-02-18 17:47:00,39.5,4.0,29.99,West,266,0.0,-999.0,23,-99.99,,,0.00,weatherlink.com 1.10,2013-02-19 00:47:00,
2013-02-18 18:02:00,38.2,4.0,30.01,West,266,0.0,-999.0,24,-99.99,,,0.00,weatherlink.com 1.10,2013-02-19 01:02:00,
2013-02-18 18:17:00,37.6,4.0,30.02,West,266,0.0,-999.0,24,-99.99,,,0.00,weatherlink.com 1.10,2013-02-19 01:17:00,
2013-02-18 18:32:00,35.9,6.0,30.04,West,266,2.0,-999.0,28,-99.99,,,0.00,weatherlink.com 1.10,2013-02-19 01:32:00,
2013-02-18 18:48:00,34.1,4.0,30.06,West,266,0.0,-999.0,28,-99.99,,,0.00,weatherlink.com 1.10,2013-02-19 01:48:00,
2013-02-18 19:02:00,32.8,5.0,30.08,West,266,0.0,-999.0,31,-99.99,,,0.00,weatherlink.com 1.10,2013-02-19 02:02:00,
2013-02-18 19:17:00,32.1,5.0,30.07,West,266,0.0,-999.0,32,-99.99,,,0.00,weatherlink.com 1.10,2013-02-19 02:17:00,
2013-02-18 19:32:00,30.3,6.0,30.07,West,266,0.0,-999.0,36,-99.99,,,0.00,weatherlink.com 1.10,2013-02-19 02:32:00,
2013-02-18 19:47:00,26.9,7.0,30.09,West,266,0.0,-999.0,43,-99.99,,,0.00,weatherlink.com 1.10,2013-02-19 02:47:00,
2013-02-18 20:18:00,24.1,8.0,30.09,West,266,2.0,-999.0,51,-99.99,,,0.00,weatherlink.com 1.10,2013-02-19 03:18:00,
2013-02-18 20:33:00,22.7,9.0,30.11,West,266,2.0,-999.0,56,-99.99,,,0.00,weatherlink.com 1.10,2013-02-19 03:33:00,
2013-02-18 20:48:00,22.5,10.0,30.12,West,266,3.0,-999.0,58,-99.99,,,0.00,weatherlink.com 1.10,2013-02-19 03:48:00,
2013-02-18 21:03:00,22.2,9.0,30.12,West,266,3.0,-999.0,58,-99.99,,,0.00,weatherlink.com 1.10,2013-02-19 04:03:00,
2013-02-18 21:18:00,21.8,10.0,30.11,West,266,2.0,-999.0,60,-99.99,,,0.00,weatherlink.com 1.10,2013-02-19 04:18:00,
2013-02-18 21:33:00,20.6,9.0,30.11,West,266,0.0,-999.0,62,-99.99,,,0.00,weatherlink.com 1.10,2013-02-19 04:33:00,
2013-02-18 21:48:00,21.3,11.0,30.12,West,266,2.0,-999.0,64,-99.99,,,0.00,weatherlink.com 1.10,2013-02-19 04:48:00,
2013-02-18 22:03:00,22.7,11.0,30.10,West,266,2.0,-999.0,61,-99.99,,,0.00,weatherlink.com 1.10,2013-02-19 05:03:00,
2013-02-18 22:18:00,22.1,11.0,30.10,West,266,2.0,-999.0,62,-99.99,,,0.00,weatherlink.com 1.10,2013-02-19 05:18:00,
2013-02-18 22:33:00,21.8,11.0,30.10,West,266,6.0,-999.0,64,-99.99,,,0.00,weatherlink.com 1.10,2013-02-19 05:33:00,
2013-02-18 22:48:00,20.6,10.0,30.10,West,266,1.0,-999.0,65,-99.99,,,0.00,weatherlink.com 1.10,2013-02-19 05:48:00,
2013-02-18 23:03:00,21.0,11.0,30.10,West,266,0.0,-999.0,65,-99.99,,,0.00,weatherlink.com 1.10,2013-02-19 06:03:00,
2013-02-18 23:18:00,20.8,11.0,30.08,West,266,5.0,-999.0,65,-99.99,,,0.00,weatherlink.com 1.10,2013-02-19 06:18:00,
2013-02-18 23:34:00,21.0,11.0,30.08,West,267,3.0,-999.0,65,-99.99,,,0.00,weatherlink.com 1.10,2013-02-19 06:34:00,
2013-02-18 23:49:00,20.6,11.0,30.08,West,268,0.0,-999.0,66,-99.99,,,0.00,weatherlink.com 1.10,2013-02-19 06:49:00,